sensor_id;sensor_type;location;lat;lon;timestamp;P1;durP1;ratioP1;P2;durP2;ratioP2
19231;SDS011;9750;48.730;10.294;2022-10-30T00:01:00;14.17;;;6.87;;
19231;SDS011;9750;48.730;10.294;2022-10-30T00:03:28;16.23;;;8.03;;
19231;SDS011;9750;48.730;10.294;2022-10-30T00:05:55;14.70;;;8.63;;
19231;SDS011;9750;48.730;10.294;2022-10-30T00:08:24;12.50;;;7.30;;
19231;SDS011;9750;48.730;10.294;2022-10-30T00:10:51;18.47;;;8.23;;
19231;SDS011;9750;48.730;10.294;2022-10-30T00:13:19;14.97;;;7.37;;
19231;SDS011;9750;48.730;10.294;2022-10-30T00:15:48;15.13;;;7.60;;
19231;SDS011;9750;48.730;10.294;2022-10-30T00:18:16;15.23;;;7.03;;
19231;SDS011;9750;48.730;10.294;2022-10-30T00:20:44;15.43;;;6.23;;
19231;SDS011;9750;48.730;10.294;2022-10-30T00:23:12;13.90;;;6.17;;
19231;SDS011;9750;48.730;10.294;2022-10-30T00:25:41;21.43;;;7.47;;
19231;SDS011;9750;48.730;10.294;2022-10-30T00:28:08;15.40;;;7.00;;
19231;SDS011;9750;48.730;10.294;2022-10-30T00:30:35;16.93;;;7.93;;
19231;SDS011;9750;48.730;10.294;2022-10-30T00:33:03;16.17;;;7.23;;
19231;SDS011;9750;48.730;10.294;2022-10-30T00:35:31;14.93;;;7.10;;
19231;SDS011;9750;48.730;10.294;2022-10-30T00:37:58;14.27;;;7.10;;
19231;SDS011;9750;48.730;10.294;2022-10-30T00:40:26;13.50;;;7.90;;
19231;SDS011;9750;48.730;10.294;2022-10-30T00:42:55;19.10;;;9.47;;
19231;SDS011;9750;48.730;10.294;2022-10-30T00:45:22;14.33;;;8.90;;
19231;SDS011;9750;48.730;10.294;2022-10-30T00:47:51;12.97;;;8.17;;
19231;SDS011;9750;48.730;10.294;2022-10-30T00:50:20;15.13;;;8.43;;
19231;SDS011;9750;48.730;10.294;2022-10-30T00:52:52;14.80;;;8.77;;
19231;SDS011;9750;48.730;10.294;2022-10-30T00:55:23;59.57;;;12.90;;
19231;SDS011;9750;48.730;10.294;2022-10-30T00:57:55;52.90;;;13.57;;
19231;SDS011;9750;48.730;10.294;2022-10-30T01:00:23;13.70;;;8.57;;
19231;SDS011;9750;48.730;10.294;2022-10-30T01:02:54;13.50;;;8.57;;
19231;SDS011;9750;48.730;10.294;2022-10-30T01:05:23;11.77;;;8.50;;
19231;SDS011;9750;48.730;10.294;2022-10-30T01:07:55;11.87;;;7.13;;
19231;SDS011;9750;48.730;10.294;2022-10-30T01:10:22;10.83;;;6.47;;
19231;SDS011;9750;48.730;10.294;2022-10-30T01:12:50;14.87;;;6.83;;
19231;SDS011;9750;48.730;10.294;2022-10-30T01:15:22;13.67;;;8.13;;
19231;SDS011;9750;48.730;10.294;2022-10-30T01:18:00;15.37;;;8.43;;
19231;SDS011;9750;48.730;10.294;2022-10-30T01:24:05;14.27;;;7.40;;
19231;SDS011;9750;48.730;10.294;2022-10-30T01:26:45;12.50;;;7.93;;
19231;SDS011;9750;48.730;10.294;2022-10-30T01:29:21;11.87;;;6.83;;
19231;SDS011;9750;48.730;10.294;2022-10-30T01:32:01;16.97;;;8.20;;
19231;SDS011;9750;48.730;10.294;2022-10-30T01:34:46;15.13;;;8.37;;
19231;SDS011;9750;48.730;10.294;2022-10-30T01:37:21;17.37;;;8.33;;
19231;SDS011;9750;48.730;10.294;2022-10-30T01:42:44;14.97;;;7.93;;
19231;SDS011;9750;48.730;10.294;2022-10-30T01:45:13;11.33;;;7.33;;
19231;SDS011;9750;48.730;10.294;2022-10-30T01:47:49;14.13;;;6.80;;
19231;SDS011;9750;48.730;10.294;2022-10-30T01:50:37;15.97;;;6.73;;
19231;SDS011;9750;48.730;10.294;2022-10-30T01:53:15;11.00;;;6.60;;
19231;SDS011;9750;48.730;10.294;2022-10-30T01:55:51;17.43;;;7.93;;
19231;SDS011;9750;48.730;10.294;2022-10-30T01:58:25;10.10;;;6.27;;
19231;SDS011;9750;48.730;10.294;2022-10-30T02:00:57;38.17;;;8.23;;
19231;SDS011;9750;48.730;10.294;2022-10-30T02:03:27;20.07;;;7.80;;
19231;SDS011;9750;48.730;10.294;2022-10-30T02:05:54;34.70;;;8.30;;
19231;SDS011;9750;48.730;10.294;2022-10-30T02:08:22;197.20;;;15.97;;
19231;SDS011;9750;48.730;10.294;2022-10-30T02:10:50;196.43;;;14.30;;
19231;SDS011;9750;48.730;10.294;2022-10-30T02:13:19;5.43;;;4.93;;
19231;SDS011;9750;48.730;10.294;2022-10-30T02:15:46;5.67;;;4.63;;
19231;SDS011;9750;48.730;10.294;2022-10-30T02:18:15;5.20;;;4.60;;
19231;SDS011;9750;48.730;10.294;2022-10-30T02:20:44;7.50;;;4.83;;
19231;SDS011;9750;48.730;10.294;2022-10-30T02:23:11;8.50;;;5.60;;
19231;SDS011;9750;48.730;10.294;2022-10-30T02:25:43;12.77;;;6.63;;
19231;SDS011;9750;48.730;10.294;2022-10-30T02:28:10;13.83;;;7.93;;
19231;SDS011;9750;48.730;10.294;2022-10-30T02:30:38;15.87;;;7.30;;
19231;SDS011;9750;48.730;10.294;2022-10-30T02:33:08;10.37;;;7.23;;
19231;SDS011;9750;48.730;10.294;2022-10-30T02:35:35;14.80;;;7.37;;
19231;SDS011;9750;48.730;10.294;2022-10-30T02:38:04;11.03;;;6.47;;
19231;SDS011;9750;48.730;10.294;2022-10-30T02:40:31;13.60;;;7.43;;
19231;SDS011;9750;48.730;10.294;2022-10-30T02:42:58;6.17;;;5.27;;
19231;SDS011;9750;48.730;10.294;2022-10-30T02:45:26;12.63;;;6.67;;
19231;SDS011;9750;48.730;10.294;2022-10-30T02:47:53;15.90;;;7.43;;
19231;SDS011;9750;48.730;10.294;2022-10-30T02:50:20;10.53;;;7.97;;
19231;SDS011;9750;48.730;10.294;2022-10-30T02:52:48;13.53;;;6.63;;
19231;SDS011;9750;48.730;10.294;2022-10-30T02:55:16;10.53;;;6.27;;
19231;SDS011;9750;48.730;10.294;2022-10-30T02:57:44;13.43;;;7.13;;
19231;SDS011;9750;48.730;10.294;2022-10-30T03:00:27;10.23;;;6.33;;
19231;SDS011;9750;48.730;10.294;2022-10-30T03:02:55;9.77;;;6.47;;
19231;SDS011;9750;48.730;10.294;2022-10-30T03:05:23;9.83;;;6.87;;
19231;SDS011;9750;48.730;10.294;2022-10-30T03:07:50;11.03;;;7.17;;
19231;SDS011;9750;48.730;10.294;2022-10-30T03:10:21;21.00;;;6.60;;
19231;SDS011;9750;48.730;10.294;2022-10-30T03:12:49;32.90;;;11.00;;
19231;SDS011;9750;48.730;10.294;2022-10-30T03:15:16;10.73;;;7.40;;
19231;SDS011;9750;48.730;10.294;2022-10-30T03:17:43;10.60;;;6.90;;
19231;SDS011;9750;48.730;10.294;2022-10-30T03:20:11;11.27;;;8.10;;
19231;SDS011;9750;48.730;10.294;2022-10-30T03:22:38;11.07;;;7.37;;
19231;SDS011;9750;48.730;10.294;2022-10-30T03:25:06;9.40;;;6.90;;
19231;SDS011;9750;48.730;10.294;2022-10-30T03:27:35;6.93;;;5.87;;
19231;SDS011;9750;48.730;10.294;2022-10-30T03:30:02;9.03;;;6.47;;
19231;SDS011;9750;48.730;10.294;2022-10-30T03:32:30;14.27;;;9.57;;
19231;SDS011;9750;48.730;10.294;2022-10-30T03:34:57;9.23;;;7.83;;
19231;SDS011;9750;48.730;10.294;2022-10-30T03:37:25;8.63;;;6.47;;
19231;SDS011;9750;48.730;10.294;2022-10-30T03:42:28;9.00;;;6.30;;
19231;SDS011;9750;48.730;10.294;2022-10-30T03:44:57;21.10;;;5.73;;
19231;SDS011;9750;48.730;10.294;2022-10-30T03:47:24;138.27;;;11.23;;
19231;SDS011;9750;48.730;10.294;2022-10-30T03:53:13;71.20;;;11.20;;
19231;SDS011;9750;48.730;10.294;2022-10-30T03:55:41;20.60;;;6.13;;
19231;SDS011;9750;48.730;10.294;2022-10-30T03:58:09;9.83;;;6.10;;
19231;SDS011;9750;48.730;10.294;2022-10-30T04:00:37;27.30;;;7.27;;
19231;SDS011;9750;48.730;10.294;2022-10-30T04:03:05;8.57;;;6.13;;
19231;SDS011;9750;48.730;10.294;2022-10-30T04:05:34;12.13;;;7.17;;
19231;SDS011;9750;48.730;10.294;2022-10-30T04:08:03;12.60;;;6.50;;
19231;SDS011;9750;48.730;10.294;2022-10-30T04:10:33;11.10;;;7.30;;
19231;SDS011;9750;48.730;10.294;2022-10-30T04:13:00;9.90;;;7.87;;
19231;SDS011;9750;48.730;10.294;2022-10-30T04:15:28;9.13;;;6.10;;
19231;SDS011;9750;48.730;10.294;2022-10-30T04:17:57;14.60;;;8.50;;
19231;SDS011;9750;48.730;10.294;2022-10-30T04:20:25;103.37;;;13.37;;
19231;SDS011;9750;48.730;10.294;2022-10-30T04:22:56;82.47;;;12.27;;
19231;SDS011;9750;48.730;10.294;2022-10-30T04:25:24;285.73;;;18.50;;
19231;SDS011;9750;48.730;10.294;2022-10-30T04:28:01;297.17;;;20.53;;
19231;SDS011;9750;48.730;10.294;2022-10-30T04:33:52;21.93;;;7.70;;
19231;SDS011;9750;48.730;10.294;2022-10-30T04:36:19;76.07;;;8.43;;
19231;SDS011;9750;48.730;10.294;2022-10-30T04:38:48;71.57;;;8.10;;
19231;SDS011;9750;48.730;10.294;2022-10-30T04:41:15;23.97;;;5.60;;
19231;SDS011;9750;48.730;10.294;2022-10-30T04:43:43;47.53;;;8.03;;
19231;SDS011;9750;48.730;10.294;2022-10-30T04:46:10;119.13;;;12.73;;
19231;SDS011;9750;48.730;10.294;2022-10-30T04:48:37;221.80;;;15.47;;
19231;SDS011;9750;48.730;10.294;2022-10-30T04:51:06;94.53;;;9.50;;
19231;SDS011;9750;48.730;10.294;2022-10-30T04:53:35;304.40;;;19.00;;
19231;SDS011;9750;48.730;10.294;2022-10-30T04:56:03;44.23;;;6.93;;
19231;SDS011;9750;48.730;10.294;2022-10-30T04:58:31;44.10;;;6.93;;
19231;SDS011;9750;48.730;10.294;2022-10-30T05:00:59;65.00;;;6.97;;
19231;SDS011;9750;48.730;10.294;2022-10-30T05:03:26;172.10;;;11.63;;
19231;SDS011;9750;48.730;10.294;2022-10-30T05:05:54;107.57;;;10.73;;
19231;SDS011;9750;48.730;10.294;2022-10-30T05:08:25;37.23;;;6.33;;
19231;SDS011;9750;48.730;10.294;2022-10-30T05:10:53;93.23;;;8.70;;
19231;SDS011;9750;48.730;10.294;2022-10-30T05:13:21;93.07;;;10.53;;
19231;SDS011;9750;48.730;10.294;2022-10-30T05:15:49;62.67;;;8.30;;
19231;SDS011;9750;48.730;10.294;2022-10-30T05:18:16;12.87;;;5.37;;
19231;SDS011;9750;48.730;10.294;2022-10-30T05:20:45;59.27;;;8.10;;
19231;SDS011;9750;48.730;10.294;2022-10-30T05:23:12;49.27;;;6.80;;
19231;SDS011;9750;48.730;10.294;2022-10-30T05:25:41;41.10;;;6.97;;
19231;SDS011;9750;48.730;10.294;2022-10-30T05:28:08;41.33;;;6.97;;
19231;SDS011;9750;48.730;10.294;2022-10-30T05:30:36;5.83;;;4.57;;
19231;SDS011;9750;48.730;10.294;2022-10-30T05:33:04;4.83;;;4.33;;
19231;SDS011;9750;48.730;10.294;2022-10-30T05:35:33;5.97;;;4.60;;
19231;SDS011;9750;48.730;10.294;2022-10-30T05:38:01;4.57;;;4.00;;
19231;SDS011;9750;48.730;10.294;2022-10-30T05:43:53;5.43;;;4.40;;
19231;SDS011;9750;48.730;10.294;2022-10-30T05:46:20;8.20;;;5.30;;
19231;SDS011;9750;48.730;10.294;2022-10-30T05:48:48;12.40;;;5.50;;
19231;SDS011;9750;48.730;10.294;2022-10-30T05:51:15;10.90;;;5.77;;
19231;SDS011;9750;48.730;10.294;2022-10-30T05:53:42;9.20;;;5.77;;
19231;SDS011;9750;48.730;10.294;2022-10-30T05:56:09;11.13;;;6.00;;
19231;SDS011;9750;48.730;10.294;2022-10-30T05:58:37;7.73;;;6.10;;
19231;SDS011;9750;48.730;10.294;2022-10-30T06:01:06;9.20;;;6.20;;
19231;SDS011;9750;48.730;10.294;2022-10-30T06:03:34;10.00;;;5.57;;
19231;SDS011;9750;48.730;10.294;2022-10-30T06:06:01;8.67;;;5.50;;
19231;SDS011;9750;48.730;10.294;2022-10-30T06:08:29;9.27;;;5.20;;
19231;SDS011;9750;48.730;10.294;2022-10-30T06:10:56;9.87;;;5.67;;
19231;SDS011;9750;48.730;10.294;2022-10-30T06:13:23;6.57;;;4.97;;
19231;SDS011;9750;48.730;10.294;2022-10-30T06:15:52;6.70;;;4.40;;
19231;SDS011;9750;48.730;10.294;2022-10-30T06:18:21;15.80;;;4.67;;
19231;SDS011;9750;48.730;10.294;2022-10-30T06:20:49;5.93;;;5.33;;
19231;SDS011;9750;48.730;10.294;2022-10-30T06:23:16;6.33;;;5.53;;
19231;SDS011;9750;48.730;10.294;2022-10-30T06:25:43;10.73;;;5.70;;
19231;SDS011;9750;48.730;10.294;2022-10-30T06:28:11;7.00;;;5.60;;
19231;SDS011;9750;48.730;10.294;2022-10-30T06:30:39;5.77;;;5.07;;
19231;SDS011;9750;48.730;10.294;2022-10-30T06:33:06;5.47;;;4.93;;
19231;SDS011;9750;48.730;10.294;2022-10-30T06:35:36;15.13;;;11.33;;
19231;SDS011;9750;48.730;10.294;2022-10-30T06:38:03;17.40;;;14.10;;
19231;SDS011;9750;48.730;10.294;2022-10-30T06:40:32;8.33;;;6.20;;
19231;SDS011;9750;48.730;10.294;2022-10-30T06:43:00;10.70;;;7.10;;
19231;SDS011;9750;48.730;10.294;2022-10-30T06:45:27;8.80;;;7.20;;
19231;SDS011;9750;48.730;10.294;2022-10-30T06:47:54;11.57;;;9.17;;
19231;SDS011;9750;48.730;10.294;2022-10-30T06:52:53;7.97;;;6.83;;
19231;SDS011;9750;48.730;10.294;2022-10-30T06:55:21;7.93;;;6.43;;
19231;SDS011;9750;48.730;10.294;2022-10-30T06:57:52;10.30;;;5.27;;
19231;SDS011;9750;48.730;10.294;2022-10-30T07:00:20;8.57;;;5.83;;
19231;SDS011;9750;48.730;10.294;2022-10-30T07:02:53;10.97;;;7.83;;
19231;SDS011;9750;48.730;10.294;2022-10-30T07:05:22;10.53;;;7.63;;
19231;SDS011;9750;48.730;10.294;2022-10-30T07:07:49;15.80;;;9.27;;
19231;SDS011;9750;48.730;10.294;2022-10-30T07:10:18;10.60;;;9.47;;
19231;SDS011;9750;48.730;10.294;2022-10-30T07:12:52;14.90;;;9.53;;
19231;SDS011;9750;48.730;10.294;2022-10-30T07:15:20;11.73;;;9.00;;
19231;SDS011;9750;48.730;10.294;2022-10-30T07:17:51;15.47;;;9.13;;
19231;SDS011;9750;48.730;10.294;2022-10-30T07:20:19;16.10;;;13.07;;
19231;SDS011;9750;48.730;10.294;2022-10-30T07:22:46;15.17;;;11.60;;
19231;SDS011;9750;48.730;10.294;2022-10-30T07:25:14;16.13;;;10.70;;
19231;SDS011;9750;48.730;10.294;2022-10-30T07:27:43;16.03;;;10.10;;
19231;SDS011;9750;48.730;10.294;2022-10-30T07:30:12;12.87;;;8.93;;
19231;SDS011;9750;48.730;10.294;2022-10-30T07:32:40;11.53;;;9.90;;
19231;SDS011;9750;48.730;10.294;2022-10-30T07:35:09;16.47;;;14.67;;
19231;SDS011;9750;48.730;10.294;2022-10-30T07:37:37;18.40;;;16.30;;
19231;SDS011;9750;48.730;10.294;2022-10-30T07:40:05;16.27;;;14.67;;
19231;SDS011;9750;48.730;10.294;2022-10-30T07:42:33;18.03;;;14.20;;
19231;SDS011;9750;48.730;10.294;2022-10-30T07:45:02;17.07;;;13.60;;
19231;SDS011;9750;48.730;10.294;2022-10-30T07:47:30;16.07;;;11.60;;
19231;SDS011;9750;48.730;10.294;2022-10-30T07:49:57;20.07;;;17.47;;
19231;SDS011;9750;48.730;10.294;2022-10-30T07:52:24;19.13;;;15.60;;
19231;SDS011;9750;48.730;10.294;2022-10-30T07:54:56;18.17;;;15.00;;
19231;SDS011;9750;48.730;10.294;2022-10-30T07:57:23;19.90;;;15.80;;
19231;SDS011;9750;48.730;10.294;2022-10-30T07:59:51;14.90;;;13.13;;
19231;SDS011;9750;48.730;10.294;2022-10-30T08:02:22;17.27;;;12.10;;
19231;SDS011;9750;48.730;10.294;2022-10-30T08:04:49;13.87;;;12.47;;
19231;SDS011;9750;48.730;10.294;2022-10-30T08:07:16;17.33;;;13.20;;
19231;SDS011;9750;48.730;10.294;2022-10-30T08:09:45;18.70;;;16.90;;
19231;SDS011;9750;48.730;10.294;2022-10-30T08:12:12;20.20;;;18.03;;
19231;SDS011;9750;48.730;10.294;2022-10-30T08:14:39;22.80;;;19.97;;
19231;SDS011;9750;48.730;10.294;2022-10-30T08:17:06;22.33;;;19.53;;
19231;SDS011;9750;48.730;10.294;2022-10-30T08:19:36;21.97;;;18.70;;
19231;SDS011;9750;48.730;10.294;2022-10-30T08:22:03;19.23;;;14.30;;
19231;SDS011;9750;48.730;10.294;2022-10-30T08:24:31;16.57;;;12.00;;
19231;SDS011;9750;48.730;10.294;2022-10-30T08:26:58;17.47;;;13.53;;
19231;SDS011;9750;48.730;10.294;2022-10-30T08:29:25;17.30;;;14.07;;
19231;SDS011;9750;48.730;10.294;2022-10-30T08:31:53;15.77;;;14.10;;
19231;SDS011;9750;48.730;10.294;2022-10-30T08:34:20;17.60;;;14.40;;
19231;SDS011;9750;48.730;10.294;2022-10-30T08:36:49;18.83;;;14.90;;
19231;SDS011;9750;48.730;10.294;2022-10-30T08:39:17;17.10;;;13.10;;
19231;SDS011;9750;48.730;10.294;2022-10-30T08:41:45;22.37;;;14.60;;
19231;SDS011;9750;48.730;10.294;2022-10-30T08:44:12;23.23;;;13.50;;
19231;SDS011;9750;48.730;10.294;2022-10-30T08:46:40;12.73;;;10.90;;
19231;SDS011;9750;48.730;10.294;2022-10-30T08:49:07;12.20;;;9.93;;
19231;SDS011;9750;48.730;10.294;2022-10-30T08:51:35;14.23;;;10.70;;
19231;SDS011;9750;48.730;10.294;2022-10-30T08:54:03;16.43;;;12.83;;
19231;SDS011;9750;48.730;10.294;2022-10-30T08:56:31;17.80;;;12.47;;
19231;SDS011;9750;48.730;10.294;2022-10-30T08:58:58;15.27;;;11.17;;
19231;SDS011;9750;48.730;10.294;2022-10-30T09:01:25;15.57;;;11.30;;
19231;SDS011;9750;48.730;10.294;2022-10-30T09:03:53;18.20;;;12.87;;
19231;SDS011;9750;48.730;10.294;2022-10-30T09:06:20;19.30;;;13.33;;
19231;SDS011;9750;48.730;10.294;2022-10-30T09:08:48;21.87;;;15.67;;
19231;SDS011;9750;48.730;10.294;2022-10-30T09:11:16;17.37;;;12.27;;
19231;SDS011;9750;48.730;10.294;2022-10-30T09:13:44;15.23;;;10.20;;
19231;SDS011;9750;48.730;10.294;2022-10-30T09:16:11;13.33;;;9.07;;
19231;SDS011;9750;48.730;10.294;2022-10-30T09:18:38;12.23;;;7.70;;
19231;SDS011;9750;48.730;10.294;2022-10-30T09:21:06;13.67;;;7.30;;
19231;SDS011;9750;48.730;10.294;2022-10-30T09:23:34;9.17;;;6.57;;
19231;SDS011;9750;48.730;10.294;2022-10-30T09:26:02;11.80;;;8.43;;
19231;SDS011;9750;48.730;10.294;2022-10-30T09:28:30;13.47;;;7.87;;
19231;SDS011;9750;48.730;10.294;2022-10-30T09:30:59;11.87;;;8.07;;
19231;SDS011;9750;48.730;10.294;2022-10-30T09:33:27;12.70;;;8.00;;
19231;SDS011;9750;48.730;10.294;2022-10-30T09:35:54;14.00;;;8.80;;
19231;SDS011;9750;48.730;10.294;2022-10-30T09:38:21;13.07;;;8.50;;
19231;SDS011;9750;48.730;10.294;2022-10-30T09:40:53;14.43;;;8.40;;
19231;SDS011;9750;48.730;10.294;2022-10-30T09:47:21;11.03;;;7.40;;
19231;SDS011;9750;48.730;10.294;2022-10-30T09:50:01;10.70;;;6.73;;
19231;SDS011;9750;48.730;10.294;2022-10-30T09:52:39;10.20;;;7.27;;
19231;SDS011;9750;48.730;10.294;2022-10-30T09:55:28;8.40;;;7.13;;
19231;SDS011;9750;48.730;10.294;2022-10-30T09:58:02;11.97;;;7.47;;
19231;SDS011;9750;48.730;10.294;2022-10-30T10:00:43;10.43;;;7.37;;
19231;SDS011;9750;48.730;10.294;2022-10-30T10:03:29;12.00;;;6.80;;
19231;SDS011;9750;48.730;10.294;2022-10-30T10:06:04;7.57;;;6.73;;
19231;SDS011;9750;48.730;10.294;2022-10-30T10:08:38;13.20;;;7.77;;
19231;SDS011;9750;48.730;10.294;2022-10-30T10:11:09;9.53;;;7.03;;
19231;SDS011;9750;48.730;10.294;2022-10-30T10:13:41;11.27;;;7.37;;
19231;SDS011;9750;48.730;10.294;2022-10-30T10:16:15;10.77;;;7.43;;
19231;SDS011;9750;48.730;10.294;2022-10-30T10:18:46;11.90;;;6.60;;
19231;SDS011;9750;48.730;10.294;2022-10-30T10:21:22;10.70;;;6.63;;
19231;SDS011;9750;48.730;10.294;2022-10-30T10:23:51;10.53;;;6.23;;
19231;SDS011;9750;48.730;10.294;2022-10-30T10:26:28;11.40;;;7.00;;
19231;SDS011;9750;48.730;10.294;2022-10-30T10:29:11;11.97;;;7.20;;
19231;SDS011;9750;48.730;10.294;2022-10-30T10:31:50;8.20;;;6.80;;
19231;SDS011;9750;48.730;10.294;2022-10-30T10:34:37;10.63;;;7.17;;
19231;SDS011;9750;48.730;10.294;2022-10-30T10:37:26;12.10;;;6.83;;
19231;SDS011;9750;48.730;10.294;2022-10-30T10:40:14;12.93;;;6.40;;
19231;SDS011;9750;48.730;10.294;2022-10-30T10:42:58;7.97;;;5.73;;
19231;SDS011;9750;48.730;10.294;2022-10-30T10:45:38;10.97;;;6.57;;
19231;SDS011;9750;48.730;10.294;2022-10-30T10:48:27;10.80;;;7.30;;
19231;SDS011;9750;48.730;10.294;2022-10-30T10:51:09;9.03;;;7.00;;
19231;SDS011;9750;48.730;10.294;2022-10-30T10:53:42;7.87;;;6.03;;
19231;SDS011;9750;48.730;10.294;2022-10-30T10:56:12;8.47;;;6.77;;
19231;SDS011;9750;48.730;10.294;2022-10-30T10:58:42;9.97;;;5.90;;
19231;SDS011;9750;48.730;10.294;2022-10-30T11:01:16;11.37;;;5.90;;
19231;SDS011;9750;48.730;10.294;2022-10-30T11:03:49;8.00;;;6.13;;
19231;SDS011;9750;48.730;10.294;2022-10-30T11:06:23;10.53;;;5.60;;
19231;SDS011;9750;48.730;10.294;2022-10-30T11:08:56;9.47;;;5.93;;
19231;SDS011;9750;48.730;10.294;2022-10-30T11:11:36;9.10;;;5.87;;
19231;SDS011;9750;48.730;10.294;2022-10-30T11:14:04;10.70;;;6.27;;
19231;SDS011;9750;48.730;10.294;2022-10-30T11:16:43;7.40;;;5.43;;
19231;SDS011;9750;48.730;10.294;2022-10-30T11:19:17;10.03;;;5.87;;
19231;SDS011;9750;48.730;10.294;2022-10-30T11:21:47;9.37;;;5.97;;
19231;SDS011;9750;48.730;10.294;2022-10-30T11:24:27;9.52;;;5.95;;
19231;SDS011;9750;48.730;10.294;2022-10-30T11:26:56;7.63;;;6.10;;
19231;SDS011;9750;48.730;10.294;2022-10-30T11:29:24;8.98;;;5.78;;
19231;SDS011;9750;48.730;10.294;2022-10-30T11:31:58;8.70;;;5.10;;
19231;SDS011;9750;48.730;10.294;2022-10-30T11:34:33;7.00;;;5.50;;
19231;SDS011;9750;48.730;10.294;2022-10-30T11:37:03;7.73;;;5.37;;
19231;SDS011;9750;48.730;10.294;2022-10-30T11:39:31;11.87;;;5.73;;
19231;SDS011;9750;48.730;10.294;2022-10-30T11:42:01;8.57;;;5.55;;
19231;SDS011;9750;48.730;10.294;2022-10-30T11:44:34;8.75;;;5.30;;
19231;SDS011;9750;48.730;10.294;2022-10-30T11:47:03;8.23;;;5.40;;
19231;SDS011;9750;48.730;10.294;2022-10-30T11:49:34;7.80;;;5.25;;
19231;SDS011;9750;48.730;10.294;2022-10-30T11:52:11;7.38;;;4.93;;
19231;SDS011;9750;48.730;10.294;2022-10-30T11:54:40;8.60;;;5.10;;
19231;SDS011;9750;48.730;10.294;2022-10-30T11:57:18;6.28;;;4.88;;
19231;SDS011;9750;48.730;10.294;2022-10-30T12:00:01;5.47;;;4.40;;
19231;SDS011;9750;48.730;10.294;2022-10-30T12:02:39;7.38;;;4.60;;
19231;SDS011;9750;48.730;10.294;2022-10-30T12:05:12;8.15;;;4.78;;
19231;SDS011;9750;48.730;10.294;2022-10-30T12:08:14;7.35;;;4.70;;
19231;SDS011;9750;48.730;10.294;2022-10-30T12:10:44;6.47;;;4.57;;
19231;SDS011;9750;48.730;10.294;2022-10-30T12:13:19;5.00;;;4.15;;
19231;SDS011;9750;48.730;10.294;2022-10-30T12:15:49;7.88;;;4.45;;
19231;SDS011;9750;48.730;10.294;2022-10-30T12:18:28;8.95;;;4.55;;
19231;SDS011;9750;48.730;10.294;2022-10-30T12:20:56;6.97;;;4.78;;
19231;SDS011;9750;48.730;10.294;2022-10-30T12:23:26;8.98;;;5.40;;
19231;SDS011;9750;48.730;10.294;2022-10-30T12:25:56;10.20;;;5.15;;
19231;SDS011;9750;48.730;10.294;2022-10-30T12:28:26;7.80;;;4.40;;
19231;SDS011;9750;48.730;10.294;2022-10-30T12:30:56;7.47;;;4.45;;
19231;SDS011;9750;48.730;10.294;2022-10-30T12:33:26;7.68;;;4.28;;
19231;SDS011;9750;48.730;10.294;2022-10-30T12:36:00;11.80;;;4.70;;
19231;SDS011;9750;48.730;10.294;2022-10-30T12:41:35;6.75;;;3.88;;
19231;SDS011;9750;48.730;10.294;2022-10-30T12:44:09;6.88;;;3.50;;
19231;SDS011;9750;48.730;10.294;2022-10-30T12:46:43;8.85;;;4.32;;
19231;SDS011;9750;48.730;10.294;2022-10-30T12:49:14;6.93;;;4.05;;
19231;SDS011;9750;48.730;10.294;2022-10-30T12:51:47;8.45;;;3.55;;
19231;SDS011;9750;48.730;10.294;2022-10-30T12:54:21;5.40;;;3.45;;
19231;SDS011;9750;48.730;10.294;2022-10-30T12:56:59;7.63;;;3.42;;
19231;SDS011;9750;48.730;10.294;2022-10-30T12:59:34;5.18;;;3.20;;
19231;SDS011;9750;48.730;10.294;2022-10-30T13:02:11;7.70;;;3.10;;
19231;SDS011;9750;48.730;10.294;2022-10-30T13:04:47;7.20;;;4.03;;
19231;SDS011;9750;48.730;10.294;2022-10-30T13:07:24;6.15;;;3.83;;
19231;SDS011;9750;48.730;10.294;2022-10-30T13:10:00;8.10;;;3.47;;
19231;SDS011;9750;48.730;10.294;2022-10-30T13:12:37;6.82;;;3.47;;
19231;SDS011;9750;48.730;10.294;2022-10-30T13:15:14;6.07;;;3.20;;
19231;SDS011;9750;48.730;10.294;2022-10-30T13:17:47;10.05;;;3.30;;
19231;SDS011;9750;48.730;10.294;2022-10-30T13:20:18;5.68;;;3.35;;
19231;SDS011;9750;48.730;10.294;2022-10-30T13:22:48;3.38;;;2.88;;
19231;SDS011;9750;48.730;10.294;2022-10-30T13:25:22;5.32;;;2.55;;
19231;SDS011;9750;48.730;10.294;2022-10-30T13:27:57;6.22;;;3.10;;
19231;SDS011;9750;48.730;10.294;2022-10-30T13:30:43;8.25;;;3.10;;
19231;SDS011;9750;48.730;10.294;2022-10-30T13:33:26;5.00;;;2.88;;
19231;SDS011;9750;48.730;10.294;2022-10-30T13:36:02;8.13;;;2.90;;
19231;SDS011;9750;48.730;10.294;2022-10-30T13:38:40;4.40;;;3.00;;
19231;SDS011;9750;48.730;10.294;2022-10-30T13:41:17;6.90;;;3.30;;
19231;SDS011;9750;48.730;10.294;2022-10-30T13:43:55;7.05;;;3.30;;
19231;SDS011;9750;48.730;10.294;2022-10-30T13:46:32;7.78;;;3.38;;
19231;SDS011;9750;48.730;10.294;2022-10-30T13:49:23;6.88;;;2.92;;
19231;SDS011;9750;48.730;10.294;2022-10-30T13:52:05;6.38;;;3.13;;
19231;SDS011;9750;48.730;10.294;2022-10-30T13:54:38;8.10;;;3.30;;
19231;SDS011;9750;48.730;10.294;2022-10-30T13:57:11;9.27;;;3.28;;
19231;SDS011;9750;48.730;10.294;2022-10-30T13:59:49;5.90;;;3.20;;
19231;SDS011;9750;48.730;10.294;2022-10-30T14:02:27;7.80;;;3.35;;
19231;SDS011;9750;48.730;10.294;2022-10-30T14:05:06;5.28;;;3.42;;
19231;SDS011;9750;48.730;10.294;2022-10-30T14:07:44;8.57;;;3.33;;
19231;SDS011;9750;48.730;10.294;2022-10-30T14:10:20;8.88;;;3.50;;
19231;SDS011;9750;48.730;10.294;2022-10-30T14:13:04;6.50;;;3.30;;
19231;SDS011;9750;48.730;10.294;2022-10-30T14:15:42;7.28;;;3.75;;
19231;SDS011;9750;48.730;10.294;2022-10-30T14:20:54;8.50;;;3.50;;
19231;SDS011;9750;48.730;10.294;2022-10-30T14:23:23;10.23;;;3.50;;
19231;SDS011;9750;48.730;10.294;2022-10-30T14:26:11;9.13;;;3.50;;
19231;SDS011;9750;48.730;10.294;2022-10-30T14:28:45;7.22;;;2.88;;
19231;SDS011;9750;48.730;10.294;2022-10-30T14:31:16;6.65;;;3.05;;
19231;SDS011;9750;48.730;10.294;2022-10-30T14:33:49;6.10;;;3.17;;
19231;SDS011;9750;48.730;10.294;2022-10-30T14:36:18;7.78;;;3.53;;
19231;SDS011;9750;48.730;10.294;2022-10-30T14:41:46;10.90;;;3.42;;
19231;SDS011;9750;48.730;10.294;2022-10-30T14:50:16;8.38;;;3.42;;
19231;SDS011;9750;48.730;10.294;2022-10-30T14:52:52;7.43;;;3.42;;
19231;SDS011;9750;48.730;10.294;2022-10-30T14:55:32;8.95;;;3.25;;
19231;SDS011;9750;48.730;10.294;2022-10-30T14:58:13;6.88;;;3.45;;
19231;SDS011;9750;48.730;10.294;2022-10-30T15:00:43;8.13;;;3.60;;
19231;SDS011;9750;48.730;10.294;2022-10-30T15:03:19;9.68;;;3.63;;
19231;SDS011;9750;48.730;10.294;2022-10-30T15:06:04;6.75;;;3.47;;
19231;SDS011;9750;48.730;10.294;2022-10-30T15:14:31;12.25;;;4.32;;
19231;SDS011;9750;48.730;10.294;2022-10-30T15:17:02;12.35;;;4.65;;
19231;SDS011;9750;48.730;10.294;2022-10-30T15:19:31;8.32;;;4.38;;
19231;SDS011;9750;48.730;10.294;2022-10-30T15:22:00;10.73;;;4.82;;
19231;SDS011;9750;48.730;10.294;2022-10-30T15:24:28;10.05;;;5.35;;
19231;SDS011;9750;48.730;10.294;2022-10-30T15:26:58;9.50;;;4.63;;
19231;SDS011;9750;48.730;10.294;2022-10-30T15:29:26;8.97;;;4.60;;
19231;SDS011;9750;48.730;10.294;2022-10-30T15:31:56;8.48;;;4.53;;
19231;SDS011;9750;48.730;10.294;2022-10-30T15:34:25;10.25;;;4.72;;
19231;SDS011;9750;48.730;10.294;2022-10-30T15:36:56;6.78;;;4.20;;
19231;SDS011;9750;48.730;10.294;2022-10-30T15:39:23;10.17;;;4.87;;
19231;SDS011;9750;48.730;10.294;2022-10-30T15:41:52;9.40;;;4.70;;
19231;SDS011;9750;48.730;10.294;2022-10-30T15:44:24;9.85;;;4.80;;